Weather at Brisbane Archerfield Airport

Public forecast

Using degrees Celsius for public forecast. Weather courtesy of forecast.io.

Closest aviation weather report (METAR) to Brisbane Archerfield Airport

Closest report is Brisbane International Airport, 12.8 nm (23.7 km) NNE.

2024/05/30 15:00 (retrieved 29 minutes ago)

YBBN 301500Z 24005KT 5000 BR NSC 16/16 Q1024 BKN065 BKN250

Closest aviation forecast (TAF) to Brisbane Archerfield Airport

Closest forecast is Brisbane International Airport, 12.8 nm (23.7 km) NNE.

2024/05/30 15:08 Ammendment (retrieved 21 minutes ago)

TAF AMD YBBN 301504Z 3015/3118 20007KT 4000 BR SCT030 FM301800 20007KT 9999 -SHRA SCT020 BKN030 FM310200 02010KT 9999 -SHRA SCT030 FM311200 34007KT 9999 -SHRA SCT020 TEMPO 3015/3100 02010KT 4000 SHRA BKN010 INTER 3100/3118 4000 SHRA SCT015 PROB40 3015/3018 0300 FG